Brooklyn, Mississippi
Current Conditions -  °F | °C
As of 4:36 AM on Saturday 20 Dec 2014 (Local Time) from KHBG Reporting Station
Light Rain Light Rain  
Wind Chill: 44°   Ceiling: 1700
Heat Index: 46°   Visibility: 6mi
Dew Point: 44°   Wind: 5mph
Humidity: 93%   Direction: 30°NNE
Pressure: 30.15"   Gusts: NA
Location:  31.06°N, 89.19°W
Report Text: KHBG 201036Z AUTO 03004KT 6SM -RA BR SCT008 OVC017 08/07 A3015 RMK AO2 RAB16 P0000 T00780067
Loading
Personal Weather Stations






























Interactive Weather Map New forecast layout! Learn more

10-Day Weather Forecast

Advertisements
Track Severe Weather on mobile